EBCI - Charleroi/Gosselies, Belgium
Distance de la station: NE 18km
Mise à jour: 19/01/2021 21:20
couvert
couvert
 Wind from SSO
Vent: SSO 28 km/h
Température: 5°C
Température ressentie: 1°C
Point de rosée: 3°C
Humidité: 87%
Baromètre: 1008 hPa
Ciel: couvert
Visibilité: 10 km
Détails du ciel: couvert 244 m
2021/01/19 20:20 EBCI 192020Z 21015KT 9999 OVC008 05/03 Q1008 TEMPO 21015G25KT BECMG BKN011
EBFS - Florennes, Belgium
Distance de la station: ESE 31km
Mise à jour: 19/01/2021 21:33
principalement nuageux
principalement nuageux
 Wind from SSO
Vent: SSO 28 km/h
Température: 4°C
Température ressentie: -1°C
Point de rosée: 3°C
Humidité: 93%
Baromètre: 1008 hPa
Ciel: principalement nuageux
Visibilité: 10 km
Détails du ciel: principalement nuageux 305 m
principalement nuageux 366 m
2021/01/19 20:33 EBFS 192033Z 20015KT 9999 BKN010 BKN012 04/03 Q1008 GRN FCST CANCEL
EBCV - Chievres, Belgium
Distance de la station: NO 40km
Mise à jour: 19/01/2021 21:25
couvert
couvert
 Wind from SSO
Vent: SSO 31 km/h
Température: 6°C
Température ressentie: 1°C
Point de rosée: 5°C
Humidité: 93%
Baromètre: 1007 hPa
Ciel: couvert
Visibilité: 10 km
Détails du ciel: couvert 366 m
2021/01/19 20:25 EBCV 192025Z AUTO 20017KT 9999 OVC012/// 06/05 Q1007 GRN
 
EBBE - Beauvechain, Belgium
Distance de la station: NE 57km
Mise à jour: 19/01/2021 21:39
couvert
couvert
 Wind from SSO
Vent: SSO 33 km/h
Température: 6°C
Température ressentie: 1°C
Point de rosée: 4°C
Humidité: 87%
Baromètre: 1007 hPa
Ciel: couvert
Visibilité: 10 km
Détails du ciel: couvert 305 m
2021/01/19 20:39 EBBE 192039Z 21018KT 9999 OVC010 06/04 Q1007 GRN FCST CANCEL
EBBR - Brussels National, Belgium
Distance de la station: NNE 63km
Mise à jour: 19/01/2021 21:20
principalement nuageux
principalement nuageux
 Wind from SSO
Vent: SSO 28 km/h
Température: 6°C
Température ressentie: 2°C
Point de rosée: 4°C
Humidité: 87%
Baromètre: 1006 hPa
Ciel: principalement nuageux
Visibilité: 10 km
Détails du ciel: principalement nuageux 366 m
2021/01/19 20:20 EBBR 192020Z 21015KT 9999 BKN012 06/04 Q1006 TEMPO 21015G25KT
LFQI - Cambrai/Epinoy, France
Distance de la station: O 82km
Mise à jour: 29/06/2012 12:30
NOT Current

 Wind from SO
Vent: SO 17 km/h
Température: 18°C
Point de rosée: 14°C
Humidité: 78%
Baromètre: 1009 hPa
2012/06/29 10:30 LFQI 291030Z AUTO 22009KT //// // ///////// 18/14 Q1009
 
LFQQ - Lille/Lesquin, France
Distance de la station: ONO 86km
Mise à jour: 19/01/2021 21:30
couvert
couvert
 Wind from S
Vent: S 33 km/h
Température: 7°C
Température ressentie: 3°C
Point de rosée: 5°C
Humidité: 87%
Baromètre: 1006 hPa
Ciel: couvert
Visibilité: 10 km
Détails du ciel: principalement nuageux 396 m
principalement nuageux 1189 m
couvert 3048 m
2021/01/19 20:30 LFQQ 192030Z AUTO 19018KT 9999 BKN013 BKN039 OVC100 07/05 Q1006 TEMPO 18020G33KT BKN017
EBLG - Bierset/Liege, Belgium
Distance de la station: ENE 89km
Mise à jour: 19/01/2021 21:20
principalement nuageux
principalement nuageux
 Wind from SSO
Vent: SSO 30 km/h
Température: 5°C
Température ressentie: 0°C
Point de rosée: 3°C
Humidité: 87%
Baromètre: 1008 hPa
Ciel: principalement nuageux
Visibilité: 10 km
Détails du ciel: principalement nuageux 366 m
2021/01/19 20:20 EBLG 192020Z 21016KT 9999 BKN012 05/03 Q1008 TEMPO 21017G27KT
EBDT - Schaffen, Belgium
Distance de la station: NE 93km
Mise à jour: 19/01/2021 21:25
couvert
couvert
 Wind from SSO
Vent: SSO 22 km/h
Température: 6°C
Température ressentie: 2°C
Point de rosée: 4°C
Humidité: 87%
Baromètre: 1007 hPa
Ciel: couvert
Visibilité: 10 km
Détails du ciel: couvert 366 m
2021/01/19 20:25 EBDT 192025Z AUTO 20012KT 9999 OVC012/// 06/04 Q1007 GRN
 
EBAW - Antwerp/Deurne, Belgium
Distance de la station: N 96km
Mise à jour: 19/01/2021 21:20
principalement nuageux
principalement nuageux
 Wind from SSO
Vent: SSO 24 km/h
Température: 7°C
Température ressentie: 3°C
Point de rosée: 5°C
Humidité: 87%
Baromètre: 1006 hPa
Ciel: principalement nuageux
Visibilité: 10 km
Détails du ciel: principalement nuageux 335 m
2021/01/19 20:20 EBAW 192020Z 21013KT 9999 BKN011 07/05 Q1006 NOSIG
LFAQ - Bray, France
Distance de la station: OSO 119km
Mise à jour: 19/01/2021 21:30
couvert
couvert
 Wind from SSO
Vent: SSO 24 km/h
Température: 6°C
Température ressentie: 2°C
Point de rosée: 4°C
Humidité: 87%
Baromètre: 1008 hPa
Ciel: couvert
Visibilité: 10 km
Détails du ciel: principalement nuageux 366 m
principalement nuageux 701 m
couvert 853 m
2021/01/19 20:30 LFAQ 192030Z AUTO 20013KT 9999 BKN012 BKN023 OVC028 06/04 Q1008
LFSR - Reims/Champagne, France
Distance de la station: S 120km
Mise à jour: 16/04/2012 09:00
NOT Current
partiellement nuageux
partiellement nuageux
 Wind from N
Vent: N 17 km/h
Température: 4°C
Température ressentie: 0°C
Point de rosée: 0°C
Humidité: 75%
Baromètre: 1022 hPa
Ciel: partiellement nuageux
Visibilité: 10 km
2012/04/16 07:00 LFSR 160700Z AUTO 01009KT 340V070 9999 NSC 04/00 Q1022
 
EHWO - Woensdrecht, Netherlands
Distance de la station: N 122km
Mise à jour: 19/01/2021 21:25
couvert
couvert
 Wind from SSO
Vent: SSO 22 km/h, Rafale: 50 km/h
Température: 8°C
Température ressentie: 4°C
Point de rosée: 5°C
Humidité: 82%
Baromètre: 1005 hPa
Ciel: couvert
Visibilité: 10 km
Détails du ciel: quelques nuages 335 m
principalement nuageux 427 m
couvert 518 m
2021/01/19 20:25 EHWO 192025Z AUTO 20012G27KT 160V250 9999 FEW011 BKN014 OVC017 08/05 Q1005 GRN
EHBK - Zuid-Limburg, Netherlands
Distance de la station: ENE 123km
Mise à jour: 19/01/2021 21:25
couvert
couvert
 Wind from SO
Vent: SO 28 km/h
Température: 6°C
Température ressentie: 2°C
Point de rosée: 3°C
Humidité: 81%
Baromètre: 1008 hPa
Ciel: couvert
Visibilité: 10 km
Détails du ciel: couvert 427 m
2021/01/19 20:25 EHBK 192025Z AUTO 22015KT 9999 OVC014 06/03 Q1008 BECMG BKN016
EBBL - Kleine-Brogel, Belgium
Distance de la station: NE 124km
Mise à jour: 19/01/2021 21:33
principalement nuageux
principalement nuageux
 Wind from SSO
Vent: SSO 24 km/h
Température: 6°C
Température ressentie: 2°C
Point de rosée: 4°C
Humidité: 87%
Baromètre: 1007 hPa
Ciel: principalement nuageux
Visibilité: 10 km
Détails du ciel: principalement nuageux 305 m
2021/01/19 20:33 EBBL 192033Z 21013KT 9999 BKN010 06/04 Q1007 GRN FCST CANCEL
 
EBLB - Elsenborn, Belgium
Distance de la station: E 135km
Mise à jour: 19/01/2021 21:25
couvert
couvert
 Wind from SO
Vent: SO 20 km/h, Rafale: 43 km/h
Température: 1°C
Température ressentie: -4°C
Point de rosée: 1°C
Humidité: 100%
Baromètre: 1008 hPa
Ciel: couvert
Visibilité: 10 km
Détails du ciel: couvert 122 m
2021/01/19 20:25 EBLB 192025Z AUTO 22011G23KT 9999 OVC004/// 01/01 Q1008 YLO
EBOS - Oostende Airport, Belgium
Distance de la station: NO 136km
Mise à jour: 19/01/2021 21:20
principalement nuageux
principalement nuageux
 Wind from SSO
Vent: SSO 28 km/h
Température: 7°C
Température ressentie: 3°C
Point de rosée: 5°C
Humidité: 87%
Baromètre: 1004 hPa
Ciel: principalement nuageux
Visibilité: 10 km
Détails du ciel: quelques nuages 305 m
principalement nuageux 762 m
2021/01/19 20:20 EBOS 192020Z 20015KT 9999 FEW010 BKN025 07/05 Q1004 NOSIG
EBFN - Koksijde, Belgium
Distance de la station: NO 140km
Mise à jour: 19/01/2021 21:25
principalement nuageux
principalement nuageux
 Wind from SO
Vent: SO 30 km/h
Température: 8°C
Température ressentie: 4°C
Point de rosée: 5°C
Humidité: 82%
Baromètre: 1003 hPa
Ciel: principalement nuageux
Visibilité: 10 km
Détails du ciel: quelques nuages 549 m
principalement nuageux 3048 m
2021/01/19 20:25 EBFN 192025Z AUTO 22016KT 9999 FEW018/// BKN100/// 08/05 Q1003 BLU
 
ETNG - Geilenkirchen, Germany
Distance de la station: ENE 142km
Mise à jour: 19/01/2021 20:50
principalement nuageux
principalement nuageux
 Wind from SO
Vent: SO 17 km/h
Température: 6°C
Température ressentie: 3°C
Point de rosée: 4°C
Humidité: 87%
Baromètre: 1008 hPa
Ciel: principalement nuageux
Visibilité: 10 km
Détails du ciel: principalement nuageux 488 m
2021/01/19 19:50 ETNG 191950Z 23009KT 9999 BKN016 06/04 Q1008 NOSIG
EHGR - Gilze-Rijen, Netherlands
Distance de la station: NNE 143km
Mise à jour: 19/01/2021 21:25
couvert
couvert
 Wind from SSO
Vent: SSO 30 km/h, Rafale: 48 km/h
Température: 7°C
Température ressentie: 3°C
Point de rosée: 5°C
Humidité: 87%
Baromètre: 1005 hPa
Ciel: couvert
Visibilité: 10 km
Détails du ciel: principalement nuageux 305 m
principalement nuageux 366 m
couvert 457 m
2021/01/19 20:25 EHGR 192025Z AUTO 20016G26KT 150V250 9999 BKN010 BKN012 OVC015 07/05 Q1005 GRN TEMPO SCT010 BKN013
EHEH - Eindhoven, Netherlands
Distance de la station: NNE 147km
Mise à jour: 19/01/2021 21:25
brume, couvert
brume, couvert
 Wind from SSO
Vent: SSO 30 km/h
Température: 6°C
Température ressentie: 2°C
Point de rosée: 5°C
Humidité: 93%
Baromètre: 1006 hPa
Résumé: brume
Ciel: couvert
Visibilité: 7 km
Détails du ciel: partiellement nuageux 274 m
couvert 305 m
2021/01/19 20:25 EHEH 192025Z AUTO 20016KT 7000 BR SCT009 OVC010 06/05 Q1006 GRN
 
ELLX - Luxembourg, Luxembourg
Distance de la station: ESE 162km
Mise à jour: 19/01/2021 21:20
clair
clair
 Wind from S
Vent: S 13 km/h
Température: 0°C
Température ressentie: -4°C
Point de rosée: -1°C
Humidité: 93%
Baromètre: 1011 hPa
Résumé: clair
Visibilité: greater than 10 km
2021/01/19 20:20 ELLX 192020Z 18007KT CAVOK M00/M01 Q1011 NOSIG
EHVK - Volkel, Netherlands
Distance de la station: NE 174km
Mise à jour: 19/01/2021 21:25
brume, couvert
brume, couvert
 Wind from SSO
Vent: SSO 31 km/h
Température: 7°C
Température ressentie: 3°C
Point de rosée: 5°C
Humidité: 87%
Baromètre: 1005 hPa
Résumé: brume
Ciel: couvert
Visibilité: 6 km
Détails du ciel: partiellement nuageux 213 m
principalement nuageux 274 m
couvert 305 m
2021/01/19 20:25 EHVK 192025Z AUTO 20017KT 170V230 6000 BR SCT007 BKN009 OVC010 07/05 Q1005 GRN
LFOK - Chalons/Vatry, France
Distance de la station: S 174km
Mise à jour: 19/01/2021 21:30
clair
clair
 Wind from S
Vent: S 22 km/h
Température: 3°C
Température ressentie: -2°C
Point de rosée: -1°C
Humidité: 75%
Baromètre: 1011 hPa
Résumé: clair
Visibilité: greater than 10 km
2021/01/19 20:30 LFOK 192030Z AUTO 18012KT CAVOK 03/M01 Q1011 NOSIG
Script from Saratoga-Weather.org